Time;durP1;ratioP1;P1;durP2;ratioP2;P2;SDS_P1;SDS_P2;PMS_P1;PMS_P2;Temp;Humidity;BMP_temperature;BMP_pressure;BME280_temperature;BME280_humidity;BME280_pressure;Samples;Min_cycle;Max_cycle;Signal;HPM_P1;HPM_P2
2022/12/20 00:01:23;;;;;;;10.27;5.95;;;8.80;99.90;;;;;;5072088;28;20202;-71
2022/12/20 00:03:51;;;;;;;8.73;5.40;;;8.70;99.90;;;;;;5072256;28;20082;-71
2022/12/20 00:06:17;;;;;;;11.23;6.22;;;8.80;99.90;;;;;;5071936;28;20072;-70
2022/12/20 00:08:44;;;;;;;8.77;6.28;;;8.80;99.90;;;;;;5071281;28;20044;-71
2022/12/20 00:11:10;;;;;;;11.30;6.40;;;8.70;99.90;;;;;;5071039;28;20055;-70
2022/12/20 00:13:36;;;;;;;9.05;5.63;;;8.70;99.90;;;;;;5071563;28;20033;-71
2022/12/20 00:16:10;;;;;;;7.47;6.07;;;8.90;99.90;;;;;;5072256;28;20036;-70
2022/12/20 00:18:37;;;;;;;12.43;5.80;;;8.70;99.90;;;;;;5072258;28;20072;-71
2022/12/20 00:21:04;;;;;;;10.80;5.50;;;8.80;99.90;;;;;;5072335;28;20036;-70
2022/12/20 00:23:30;;;;;;;9.07;5.28;;;8.80;99.90;;;;;;5071911;28;20044;-71
2022/12/20 00:26:13;;;;;;;8.88;6.03;;;8.80;99.90;;;;;;5072092;28;20039;-70
2022/12/20 00:28:40;;;;;;;6.95;5.43;;;8.70;99.90;;;;;;5071962;28;20044;-70
2022/12/20 00:31:07;;;;;;;9.02;5.57;;;8.60;99.90;;;;;;5071927;28;20037;-70
2022/12/20 00:33:34;;;;;;;11.10;5.22;;;8.60;99.90;;;;;;5071591;28;20041;-71
2022/12/20 00:35:59;;;;;;;9.30;5.97;;;8.80;99.90;;;;;;5071551;28;20040;-71
2022/12/20 00:38:25;;;;;;;12.50;5.35;;;8.60;99.90;;;;;;5071974;28;20406;-71
2022/12/20 00:41:04;;;;;;;6.60;5.15;;;8.70;99.90;;;;;;5071852;28;20218;-71
2022/12/20 00:43:30;;;;;;;6.68;4.68;;;8.60;99.90;;;;;;5070445;28;20076;-70
2022/12/20 00:45:56;;;;;;;8.35;5.18;;;8.60;99.90;;;;;;5071292;28;20743;-71
2022/12/20 00:48:22;;;;;;;9.75;5.68;;;8.60;99.90;;;;;;5071857;28;20120;-71
2022/12/20 00:50:48;;;;;;;6.20;5.20;;;8.60;99.90;;;;;;5071623;28;20083;-71
2022/12/20 00:53:14;;;;;;;6.75;5.20;;;8.50;99.90;;;;;;5071315;28;20043;-71
2022/12/20 00:55:44;;;;;;;7.18;4.88;;;8.60;99.90;;;;;;5071372;28;20594;-71
2022/12/20 00:58:10;;;;;;;7.13;5.28;;;8.70;99.90;;;;;;5071468;28;20036;-71
2022/12/20 01:00:37;;;;;;;9.60;5.97;;;8.80;99.90;;;;;;5070695;28;20494;-71
2022/12/20 01:03:02;;;;;;;7.97;5.05;;;8.80;99.90;;;;;;5070503;28;20036;-71
2022/12/20 01:05:28;;;;;;;8.20;5.03;;;8.70;99.90;;;;;;5071535;28;20044;-70
2022/12/20 01:07:54;;;;;;;8.25;5.40;;;8.70;99.90;;;;;;5071477;28;20041;-70
2022/12/20 01:10:19;;;;;;;7.30;4.60;;;8.80;99.90;;;;;;5071511;28;20033;-70
2022/12/20 01:12:45;;;;;;;7.15;5.28;;;8.80;99.90;;;;;;5070273;28;20482;-71
2022/12/20 01:15:11;;;;;;;6.85;4.97;;;8.70;99.90;;;;;;5071236;28;20040;-71
2022/12/20 01:17:36;;;;;;;9.30;4.55;;;8.80;99.90;;;;;;5071579;28;20127;-71
2022/12/20 01:20:04;;;;;;;8.57;5.10;;;8.90;99.90;;;;;;5071610;28;20490;-71
2022/12/20 01:22:29;;;;;;;6.15;4.40;;;8.70;99.90;;;;;;5071202;28;20040;-71
2022/12/20 01:24:55;;;;;;;7.35;4.43;;;8.80;99.90;;;;;;5071429;28;20046;-71
2022/12/20 01:27:20;;;;;;;9.25;4.90;;;8.90;99.90;;;;;;5071163;28;20097;-70
2022/12/20 01:29:46;;;;;;;9.27;4.43;;;8.90;99.90;;;;;;5070183;28;20055;-70
2022/12/20 01:32:12;;;;;;;5.22;4.35;;;8.80;99.90;;;;;;5070773;28;20032;-70
2022/12/20 01:34:37;;;;;;;6.13;4.32;;;8.70;99.90;;;;;;5071006;28;20032;-71
2022/12/20 01:37:03;;;;;;;7.15;4.57;;;8.80;99.90;;;;;;5071383;28;20040;-70
2022/12/20 01:39:28;;;;;;;8.52;4.97;;;8.90;99.90;;;;;;5069875;28;20103;-71
2022/12/20 01:41:54;;;;;;;12.02;6.13;;;8.80;99.90;;;;;;5069803;28;20044;-71
2022/12/20 01:44:19;;;;;;;6.38;4.35;;;8.80;99.90;;;;;;5070964;28;20063;-71
2022/12/20 01:46:47;;;;;;;9.55;5.03;;;9.00;99.90;;;;;;5071064;28;20041;-71
2022/12/20 01:49:23;;;;;;;8.38;4.65;;;8.90;99.90;;;;;;5071080;28;20041;-71
2022/12/20 01:52:05;;;;;;;8.15;4.57;;;8.90;99.90;;;;;;5070912;28;20406;-71
2022/12/20 01:54:39;;;;;;;9.70;5.60;;;8.90;99.90;;;;;;5070482;28;20083;-70
2022/12/20 01:57:09;;;;;;;6.97;4.75;;;8.80;99.90;;;;;;5071210;28;20043;-70
2022/12/20 01:59:39;;;;;;;5.68;4.20;;;8.90;99.90;;;;;;5070956;28;20036;-71
2022/12/20 02:02:08;;;;;;;8.68;5.70;;;8.90;99.90;;;;;;5071038;28;20044;-71
2022/12/20 02:04:34;;;;;;;6.10;4.20;;;8.90;99.90;;;;;;5070611;28;20041;-71
2022/12/20 02:07:01;;;;;;;7.45;4.50;;;8.80;99.90;;;;;;5070717;28;20032;-71
2022/12/20 02:09:27;;;;;;;5.78;3.88;;;8.80;99.90;;;;;;5071037;28;20048;-71
2022/12/20 02:12:15;;;;;;;8.75;4.35;;;8.80;99.90;;;;;;5070908;28;20039;-71
2022/12/20 02:15:02;;;;;;;6.72;4.18;;;9.00;99.90;;;;;;5070574;28;20032;-71
2022/12/20 02:17:33;;;;;;;7.05;4.47;;;9.00;99.90;;;;;;5070756;28;20083;-71
2022/12/20 02:20:23;;;;;;;8.82;4.30;;;8.80;99.90;;;;;;5070645;28;20032;-71
2022/12/20 02:23:34;;;;;;;7.03;4.30;;;8.80;99.90;;;;;;5070596;28;20045;-71
2022/12/20 02:26:27;;;;;;;5.82;4.10;;;8.80;99.90;;;;;;5072805;28;20040;-71
2022/12/20 02:29:24;;;;;;;7.28;4.40;;;8.90;99.90;;;;;;5074293;28;20047;-71
2022/12/20 02:32:07;;;;;;;6.07;4.32;;;9.00;99.90;;;;;;5074276;28;20122;-71
2022/12/20 02:34:35;;;;;;;7.35;4.55;;;8.80;99.90;;;;;;5072549;28;20490;-71
2022/12/20 02:37:01;;;;;;;7.30;4.40;;;8.80;99.90;;;;;;5074024;28;20517;-71
2022/12/20 02:39:29;;;;;;;7.53;4.45;;;9.00;99.90;;;;;;5074030;28;20037;-71
2022/12/20 02:42:18;;;;;;;7.25;4.43;;;8.90;99.90;;;;;;5074046;28;20029;-71
2022/12/20 02:47:55;;;;;;;8.80;4.60;;;8.80;99.90;;;;;;5073987;28;20124;-71
2022/12/20 02:50:28;;;;;;;5.88;4.38;;;8.80;99.90;;;;;;5073821;28;20075;-71
2022/12/20 02:52:54;;;;;;;5.03;4.10;;;9.00;99.90;;;;;;5072457;28;20378;-71
2022/12/20 02:55:29;;;;;;;5.97;4.28;;;8.90;99.90;;;;;;5072337;28;20040;-71
2022/12/20 02:58:00;;;;;;;7.72;4.50;;;9.00;99.90;;;;;;5073689;28;20533;-71
2022/12/20 03:00:30;;;;;;;6.20;3.80;;;8.90;99.90;;;;;;5072369;28;20080;-71
2022/12/20 03:05:45;;;;;;;5.80;4.55;;;9.10;99.90;;;;;;5073489;28;20131;-71
2022/12/20 03:08:11;;;;;;;6.25;4.63;;;8.90;99.90;;;;;;5073392;28;20045;-71
2022/12/20 03:10:37;;;;;;;6.82;4.47;;;8.90;99.90;;;;;;5072367;28;20070;-71
2022/12/20 03:13:02;;;;;;;5.13;4.32;;;8.90;99.90;;;;;;5071790;28;20043;-71
2022/12/20 03:15:28;;;;;;;5.82;4.43;;;9.10;99.90;;;;;;5073193;28;20036;-71
2022/12/20 03:17:53;;;;;;;7.38;5.15;;;8.90;99.90;;;;;;5073242;28;20514;-71
2022/12/20 03:20:19;;;;;;;8.27;5.15;;;9.10;99.90;;;;;;5072282;28;20048;-71
2022/12/20 03:22:44;;;;;;;7.95;4.88;;;8.80;99.90;;;;;;5071317;28;20540;-71
2022/12/20 03:25:10;;;;;;;6.93;4.78;;;8.80;99.90;;;;;;5073043;28;20051;-71
2022/12/20 03:27:36;;;;;;;8.20;4.75;;;9.00;99.90;;;;;;5071694;28;20041;-71
2022/12/20 03:30:03;;;;;;;8.15;5.65;;;9.10;99.90;;;;;;5071780;28;20123;-71
2022/12/20 03:32:29;;;;;;;9.25;5.00;;;9.00;99.90;;;;;;5071218;28;20036;-71
2022/12/20 03:34:54;;;;;;;6.63;4.50;;;9.10;99.90;;;;;;5071374;28;20051;-71
2022/12/20 03:37:20;;;;;;;9.55;5.20;;;9.00;99.90;;;;;;5072420;28;20036;-71
2022/12/20 03:39:46;;;;;;;7.53;4.57;;;9.10;99.90;;;;;;5072916;28;20042;-71
2022/12/20 03:42:11;;;;;;;6.20;4.30;;;9.00;99.90;;;;;;5072559;28;20093;-71
2022/12/20 03:44:37;;;;;;;9.38;4.80;;;8.80;99.90;;;;;;5072393;28;20074;-71
2022/12/20 03:47:02;;;;;;;10.88;5.20;;;8.70;99.90;;;;;;5072497;28;20125;-71
2022/12/20 03:49:28;;;;;;;7.32;5.30;;;8.80;99.90;;;;;;5072877;28;20124;-71
2022/12/20 03:51:54;;;;;;;11.18;5.22;;;8.70;99.90;;;;;;5072563;28;20529;-71
2022/12/20 03:54:20;;;;;;;6.47;4.63;;;8.70;99.90;;;;;;5072252;28;20040;-71
2022/12/20 03:56:45;;;;;;;6.45;5.18;;;8.80;99.90;;;;;;5072473;28;20043;-71
2022/12/20 03:59:11;;;;;;;6.35;4.93;;;8.70;99.90;;;;;;5072344;28;20075;-71
2022/12/20 04:01:37;;;;;;;9.13;5.10;;;8.60;99.90;;;;;;5072362;28;20123;-70
2022/12/20 04:04:03;;;;;;;9.02;4.90;;;8.60;99.90;;;;;;5070768;28;20407;-71
2022/12/20 04:06:29;;;;;;;9.02;5.70;;;8.60;99.90;;;;;;5074493;28;20037;-72
2022/12/20 04:08:55;;;;;;;6.57;4.90;;;8.60;99.90;;;;;;5074178;28;20097;-71
2022/12/20 04:11:20;;;;;;;7.55;5.13;;;8.60;99.90;;;;;;5054574;28;20036;-71
2022/12/20 04:13:51;;;;;;;7.50;5.18;;;8.50;99.90;;;;;;5072034;28;20040;-71
2022/12/20 04:16:25;;;;;;;9.75;6.38;;;8.70;99.90;;;;;;5070701;28;20048;-70
2022/12/20 04:18:51;;;;;;;10.10;5.57;;;8.80;99.90;;;;;;5072292;28;20033;-70
2022/12/20 04:21:30;;;;;;;10.20;5.30;;;8.60;99.90;;;;;;5072242;28;20051;-71
2022/12/20 04:23:56;;;;;;;7.40;5.22;;;8.60;99.90;;;;;;5070739;28;20112;-71
2022/12/20 04:26:22;;;;;;;6.75;5.32;;;8.70;99.90;;;;;;5071714;28;20037;-71
2022/12/20 04:28:48;;;;;;;9.23;5.10;;;8.80;99.90;;;;;;5071781;28;20046;-71
2022/12/20 04:31:13;;;;;;;8.20;5.25;;;9.00;99.90;;;;;;5072077;28;20508;-71
2022/12/20 04:33:39;;;;;;;9.40;4.80;;;8.70;99.90;;;;;;5071574;28;20111;-71
2022/12/20 04:36:05;;;;;;;8.82;5.68;;;8.80;99.90;;;;;;5071732;28;20068;-71
2022/12/20 04:38:31;;;;;;;7.53;5.32;;;8.80;99.90;;;;;;5071866;28;20044;-71
2022/12/20 04:40:57;;;;;;;9.00;5.72;;;8.90;99.90;;;;;;5071886;28;20102;-72
2022/12/20 04:43:23;;;;;;;7.60;5.45;;;9.10;99.90;;;;;;5071446;28;20093;-73
2022/12/20 04:45:59;;;;;;;8.88;5.78;;;9.00;99.90;;;;;;5072001;28;20092;-72
2022/12/20 04:48:26;;;;;;;9.95;5.43;;;8.90;99.90;;;;;;5071064;28;20051;-72
2022/12/20 04:50:53;;;;;;;9.57;5.75;;;8.80;99.90;;;;;;5071809;28;20036;-72
2022/12/20 04:56:04;;;;;;;8.88;5.78;;;9.10;99.90;;;;;;5070597;28;20448;-72
2022/12/20 04:58:29;;;;;;;8.13;5.60;;;8.80;99.90;;;;;;5071851;28;20044;-72
2022/12/20 05:00:55;;;;;;;8.50;6.25;;;9.20;99.90;;;;;;5071433;28;20195;-72
2022/12/20 05:03:22;;;;;;;7.93;5.60;;;9.10;99.90;;;;;;5069878;28;20093;-72
2022/12/20 05:05:48;;;;;;;11.30;5.47;;;8.90;99.90;;;;;;5071587;28;20185;-72
2022/12/20 05:08:13;;;;;;;9.93;5.43;;;9.10;99.90;;;;;;5070246;28;20545;-72
2022/12/20 05:10:39;;;;;;;9.30;5.90;;;8.90;99.90;;;;;;5071468;28;20040;-73
2022/12/20 05:13:05;;;;;;;7.97;6.20;;;8.90;99.90;;;;;;5070887;28;20387;-73
2022/12/20 05:15:31;;;;;;;8.18;5.82;;;9.00;99.90;;;;;;5071261;28;20064;-72
2022/12/20 05:17:58;;;;;;;7.18;6.05;;;9.10;99.90;;;;;;5071571;28;20044;-72
2022/12/20 05:20:25;;;;;;;12.45;5.97;;;9.30;99.90;;;;;;5070018;28;20041;-73
2022/12/20 05:28:27;;;;;;;6.75;5.40;;;9.20;99.90;;;;;;5069902;28;20052;-70
2022/12/20 05:30:52;;;;;;;9.23;5.80;;;9.10;99.90;;;;;;5070168;28;20044;-73
2022/12/20 05:33:18;;;;;;;11.20;5.93;;;9.30;99.90;;;;;;5069576;28;20485;-71
2022/12/20 05:35:43;;;;;;;7.50;4.97;;;9.30;99.90;;;;;;5071292;28;20028;-72
2022/12/20 05:38:09;;;;;;;11.20;5.60;;;9.20;99.90;;;;;;5071278;28;20032;-72
2022/12/20 05:40:34;;;;;;;8.45;5.03;;;9.10;99.90;;;;;;5071248;28;20043;-72
2022/12/20 05:43:00;;;;;;;7.95;5.20;;;9.30;99.90;;;;;;5070799;28;20123;-72
2022/12/20 05:45:26;;;;;;;7.38;5.38;;;9.20;99.90;;;;;;5069712;28;20040;-72
2022/12/20 05:47:51;;;;;;;8.88;5.75;;;9.40;99.90;;;;;;5070965;28;20098;-73
2022/12/20 05:50:17;;;;;;;6.68;5.40;;;9.50;99.90;;;;;;5071073;28;20508;-72
2022/12/20 05:52:43;;;;;;;8.77;4.93;;;9.50;99.90;;;;;;5070803;28;20120;-71
2022/12/20 05:55:09;;;;;;;8.65;5.60;;;9.40;99.90;;;;;;5070926;28;20044;-72
2022/12/20 05:57:35;;;;;;;11.07;5.10;;;9.20;99.90;;;;;;5071031;28;20511;-71
2022/12/20 06:00:01;;;;;;;6.88;4.72;;;9.30;99.90;;;;;;5073495;28;20123;-71
2022/12/20 06:02:27;;;;;;;7.05;4.70;;;9.40;99.90;;;;;;5073088;28;20040;-71
2022/12/20 06:04:52;;;;;;;12.13;5.15;;;9.30;99.90;;;;;;5074740;28;20412;-71
2022/12/20 06:07:21;;;;;;;9.50;4.30;;;9.50;99.90;;;;;;5073650;28;20040;-72
2022/12/20 06:09:46;;;;;;;7.65;4.65;;;9.40;99.90;;;;;;5074612;28;20575;-72
2022/12/20 06:12:12;;;;;;;7.57;4.85;;;9.60;99.90;;;;;;5074361;28;20036;-73
2022/12/20 06:14:38;;;;;;;6.43;4.95;;;9.60;99.90;;;;;;5074286;28;20037;-72
2022/12/20 06:17:04;;;;;;;6.00;4.20;;;9.60;99.90;;;;;;5074435;28;20089;-72
2022/12/20 06:19:29;;;;;;;5.95;4.45;;;9.40;99.90;;;;;;5074522;28;20486;-71
2022/12/20 06:21:55;;;;;;;7.80;4.40;;;9.40;99.90;;;;;;5074599;28;20041;-71
2022/12/20 06:24:24;;;;;;;8.05;4.97;;;9.40;99.90;;;;;;5072978;28;20452;-71
2022/12/20 06:26:50;;;;;;;6.30;4.38;;;9.70;99.90;;;;;;5074251;28;20036;-73
2022/12/20 06:29:16;;;;;;;7.97;4.43;;;9.60;99.90;;;;;;5074234;28;20084;-72
2022/12/20 06:31:42;;;;;;;6.25;4.47;;;9.70;99.90;;;;;;5073046;28;20040;-72
2022/12/20 06:34:08;;;;;;;7.03;4.45;;;9.60;99.90;;;;;;5070331;28;20032;-73
2022/12/20 06:36:34;;;;;;;6.70;4.10;;;9.40;99.90;;;;;;5072907;28;20094;-72
2022/12/20 06:39:00;;;;;;;7.07;4.95;;;9.60;99.90;;;;;;5074336;28;20563;-73
2022/12/20 06:41:25;;;;;;;6.30;4.40;;;9.70;99.90;;;;;;5074324;28;20478;-73
2022/12/20 06:43:51;;;;;;;6.25;4.30;;;9.70;99.90;;;;;;5072682;28;20044;-72
2022/12/20 06:46:16;;;;;;;6.97;4.25;;;9.40;99.90;;;;;;5072816;28;20048;-73
2022/12/20 06:48:42;;;;;;;7.40;4.70;;;9.60;99.90;;;;;;5074197;28;20074;-72
2022/12/20 06:51:07;;;;;;;6.45;4.50;;;9.70;99.90;;;;;;5074139;28;20043;-72
2022/12/20 06:53:33;;;;;;;8.20;4.40;;;9.70;99.90;;;;;;5073747;28;20039;-72
2022/12/20 06:55:59;;;;;;;7.15;4.43;;;9.70;99.90;;;;;;5074000;28;20047;-73
2022/12/20 06:58:24;;;;;;;6.60;5.10;;;9.60;99.90;;;;;;5074009;28;20495;-73
2022/12/20 07:00:50;;;;;;;6.95;5.38;;;9.80;99.90;;;;;;5073482;28;20119;-72
2022/12/20 07:03:15;;;;;;;6.78;4.90;;;9.80;99.90;;;;;;5073620;28;20068;-72
2022/12/20 07:05:41;;;;;;;7.13;5.05;;;9.70;99.90;;;;;;5073780;28;20037;-72
2022/12/20 07:08:07;;;;;;;7.45;4.95;;;9.70;99.90;;;;;;5072335;28;20560;-72
2022/12/20 07:10:34;;;;;;;8.45;5.47;;;9.60;99.90;;;;;;5072657;28;20071;-72
2022/12/20 07:13:00;;;;;;;9.02;6.03;;;9.50;99.90;;;;;;5073222;28;20413;-73
2022/12/20 07:15:25;;;;;;;9.32;6.15;;;9.40;99.90;;;;;;5073196;28;20115;-72
2022/12/20 07:17:51;;;;;;;7.80;5.53;;;9.60;99.90;;;;;;5072315;28;20478;-73
2022/12/20 07:20:17;;;;;;;13.32;6.90;;;9.70;99.90;;;;;;5073677;28;20044;-72
2022/12/20 07:22:43;;;;;;;11.23;6.10;;;9.70;99.90;;;;;;5072583;28;20037;-72
2022/12/20 07:25:09;;;;;;;7.57;6.10;;;9.60;99.90;;;;;;5072993;28;20044;-72
2022/12/20 07:27:35;;;;;;;8.70;7.15;;;9.60;99.90;;;;;;5073367;28;20041;-73
2022/12/20 07:30:01;;;;;;;9.32;6.30;;;9.30;99.90;;;;;;5071966;28;20505;-72
2022/12/20 07:32:26;;;;;;;10.98;7.55;;;9.30;99.90;;;;;;5072751;28;20521;-71
2022/12/20 07:34:52;;;;;;;10.15;7.15;;;9.60;99.90;;;;;;5072970;28;20045;-72
2022/12/20 07:37:18;;;;;;;14.73;7.50;;;9.50;99.90;;;;;;5071946;28;20040;-72
2022/12/20 07:39:43;;;;;;;9.93;6.78;;;9.60;99.90;;;;;;5073151;28;20410;-72
2022/12/20 07:42:09;;;;;;;12.32;7.50;;;9.30;99.90;;;;;;5072784;28;20429;-72
2022/12/20 07:44:35;;;;;;;11.77;7.93;;;9.50;99.90;;;;;;5071997;28;20459;-72
2022/12/20 07:47:00;;;;;;;12.93;7.93;;;9.60;99.90;;;;;;5072519;28;20120;-72
2022/12/20 07:49:26;;;;;;;13.13;8.13;;;9.50;99.90;;;;;;5072600;28;20041;-72
2022/12/20 07:51:57;;;;;;;11.15;8.38;;;9.60;99.90;;;;;;5072631;28;20033;-72
2022/12/20 07:54:29;;;;;;;11.18;8.15;;;9.40;99.90;;;;;;5072471;28;20040;-73
2022/12/20 07:56:59;;;;;;;10.30;7.78;;;9.40;99.90;;;;;;5072633;28;20127;-72
2022/12/20 07:59:33;;;;;;;12.23;7.88;;;9.40;99.90;;;;;;5071598;28;20037;-72
2022/12/20 08:02:00;;;;;;;12.20;8.23;;;9.40;99.90;;;;;;5072776;28;20115;-72
2022/12/20 08:04:27;;;;;;;11.80;8.30;;;9.60;99.90;;;;;;5072342;28;20044;-72
2022/12/20 08:06:54;;;;;;;12.55;7.47;;;9.50;99.90;;;;;;5071161;28;20052;-72
2022/12/20 08:09:22;;;;;;;11.90;8.88;;;9.70;99.90;;;;;;5072433;28;20127;-72
2022/12/20 08:11:49;;;;;;;10.90;7.72;;;9.70;99.90;;;;;;5072321;28;20051;-72
2022/12/20 08:14:17;;;;;;;11.45;8.50;;;9.70;99.90;;;;;;5072219;28;20407;-72
2022/12/20 08:16:43;;;;;;;11.48;7.32;;;9.70;99.90;;;;;;5072522;28;20041;-72
2022/12/20 08:19:09;;;;;;;11.98;7.95;;;9.50;99.90;;;;;;5072684;28;20115;-72
2022/12/20 08:21:34;;;;;;;10.50;7.78;;;9.70;99.90;;;;;;5070414;28;20040;-72
2022/12/20 08:24:00;;;;;;;10.30;7.03;;;9.70;99.90;;;;;;5071514;28;20044;-72
2022/12/20 08:26:26;;;;;;;17.77;7.63;;;9.70;99.90;;;;;;5071514;28;20043;-72
2022/12/20 08:28:52;;;;;;;10.55;6.65;;;9.70;99.90;;;;;;5070991;28;20037;-73
2022/12/20 08:31:18;;;;;;;11.00;6.82;;;9.60;99.90;;;;;;5071117;28;20040;-72
2022/12/20 08:33:44;;;;;;;10.23;7.75;;;9.60;99.90;;;;;;5072047;28;20038;-72
2022/12/20 08:36:11;;;;;;;10.23;7.00;;;9.60;99.90;;;;;;5072010;28;20033;-72
2022/12/20 08:38:37;;;;;;;12.18;6.63;;;9.70;99.90;;;;;;5072092;28;20056;-73
2022/12/20 08:41:11;;;;;;;11.00;6.68;;;9.80;99.90;;;;;;5071943;28;20040;-72
2022/12/20 08:43:38;;;;;;;9.38;5.90;;;9.80;99.90;;;;;;5071887;28;20040;-72
2022/12/20 08:46:05;;;;;;;9.52;5.88;;;9.60;99.90;;;;;;5071947;28;20095;-73
2022/12/20 08:48:31;;;;;;;8.70;5.82;;;9.80;99.90;;;;;;5071957;28;20075;-72
2022/12/20 08:51:01;;;;;;;7.70;5.55;;;9.80;99.90;;;;;;5071850;28;20079;-72
2022/12/20 08:53:28;;;;;;;8.23;5.80;;;9.60;99.90;;;;;;5070215;28;20040;-72
2022/12/20 08:56:01;;;;;;;8.82;5.55;;;9.60;99.90;;;;;;5071936;28;20040;-73
2022/12/20 08:58:27;;;;;;;9.68;6.00;;;9.80;99.90;;;;;;5071940;28;20127;-72
2022/12/20 09:00:52;;;;;;;7.43;5.40;;;9.70;99.90;;;;;;5071697;28;20139;-72
2022/12/20 09:03:18;;;;;;;7.57;4.85;;;9.80;99.90;;;;;;5071359;28;20076;-73
2022/12/20 09:05:45;;;;;;;8.80;4.88;;;9.70;99.90;;;;;;5071250;28;20432;-72
2022/12/20 09:08:11;;;;;;;8.35;5.72;;;9.70;99.90;;;;;;5070509;28;20071;-72
2022/12/20 09:10:36;;;;;;;6.63;4.40;;;9.70;99.90;;;;;;5070671;28;20522;-72
2022/12/20 09:13:02;;;;;;;11.18;5.03;;;9.70;99.90;;;;;;5071308;28;20032;-73
2022/12/20 09:15:27;;;;;;;8.82;6.07;;;9.80;99.90;;;;;;5071598;28;20044;-73
2022/12/20 09:17:54;;;;;;;9.15;4.97;;;9.90;99.90;;;;;;5071597;28;20044;-73
2022/12/20 09:20:20;;;;;;;7.70;4.35;;;9.90;99.90;;;;;;5071326;28;20418;-72
2022/12/20 09:22:45;;;;;;;7.95;4.30;;;9.90;99.90;;;;;;5071288;28;20041;-71
2022/12/20 09:25:11;;;;;;;8.98;4.80;;;9.70;99.90;;;;;;5071906;28;20078;-72
2022/12/20 09:27:37;;;;;;;7.35;5.10;;;9.80;99.90;;;;;;5070322;28;20047;-71
2022/12/20 09:30:03;;;;;;;7.85;4.50;;;9.70;99.90;;;;;;5070421;28;20047;-72
2022/12/20 09:32:29;;;;;;;7.10;4.57;;;9.90;99.90;;;;;;5069740;28;20494;-73
2022/12/20 09:34:54;;;;;;;8.30;5.20;;;10.00;99.90;;;;;;5073906;28;20038;-73
2022/12/20 09:37:20;;;;;;;8.57;5.22;;;9.90;99.90;;;;;;5076095;28;20047;-72
2022/12/20 09:39:48;;;;;;;7.47;4.35;;;10.00;99.90;;;;;;5076099;28;20040;-71
2022/12/20 09:42:15;;;;;;;10.60;4.35;;;10.00;99.90;;;;;;5075405;28;20052;-71
2022/12/20 09:44:41;;;;;;;7.72;4.72;;;10.10;99.90;;;;;;5074916;28;20078;-71
2022/12/20 09:47:13;;;;;;;7.97;4.70;;;10.00;99.90;;;;;;5075176;28;20218;-71
2022/12/20 09:49:42;;;;;;;8.75;4.65;;;10.20;99.90;;;;;;5075101;28;20047;-72
2022/12/20 09:52:17;;;;;;;5.32;3.83;;;10.00;99.90;;;;;;5075300;28;20033;-73
2022/12/20 09:55:06;;;;;;;8.02;4.80;;;10.20;99.90;;;;;;5075025;28;20036;-72
2022/12/20 09:57:53;;;;;;;6.60;4.28;;;10.10;99.90;;;;;;5065594;28;20082;-72
2022/12/20 10:00:20;;;;;;;5.30;3.90;;;10.10;99.90;;;;;;5075249;28;20048;-72
2022/12/20 10:02:47;;;;;;;9.82;4.05;;;10.10;99.90;;;;;;5074727;28;20040;-72
2022/12/20 10:05:21;;;;;;;5.70;3.80;;;10.20;99.90;;;;;;5074974;28;20068;-73
2022/12/20 10:07:59;;;;;;;6.30;4.25;;;10.20;99.90;;;;;;5073527;28;20044;-73
2022/12/20 10:11:03;;;;;;;6.38;3.83;;;10.40;99.90;;;;;;5074358;28;20064;-72
2022/12/20 10:13:50;;;;;;;4.20;3.80;;;10.40;99.90;;;;;;5046727;28;20059;-73
2022/12/20 10:16:44;;;;;;;7.10;4.10;;;10.40;99.90;;;;;;5067081;28;20406;-72
2022/12/20 10:19:33;;;;;;;6.50;4.13;;;10.40;99.90;;;;;;5072421;28;20048;-72
2022/12/20 10:22:23;;;;;;;5.40;3.97;;;10.20;99.90;;;;;;5073150;28;20048;-72
2022/12/20 10:24:59;;;;;;;4.90;3.58;;;10.30;99.90;;;;;;5073959;28;20064;-72
2022/12/20 10:27:25;;;;;;;9.30;4.15;;;10.30;99.90;;;;;;5074426;28;20133;-73
2022/12/20 10:29:51;;;;;;;7.93;4.28;;;10.30;99.90;;;;;;5073051;28;20079;-72
2022/12/20 10:32:21;;;;;;;6.63;3.85;;;10.50;99.90;;;;;;5074284;28;20032;-74
2022/12/20 10:35:18;;;;;;;6.13;3.80;;;10.50;99.90;;;;;;5074385;28;20538;-72
2022/12/20 10:38:06;;;;;;;8.02;4.47;;;10.40;99.90;;;;;;5074209;28;20063;-71
2022/12/20 10:40:41;;;;;;;5.95;4.05;;;10.30;99.90;;;;;;5073145;28;20111;-71
2022/12/20 10:43:17;;;;;;;7.90;3.50;;;10.30;99.90;;;;;;5072155;28;20056;-73
2022/12/20 10:45:44;;;;;;;7.50;4.05;;;10.40;99.90;;;;;;5072628;28;20036;-73
2022/12/20 10:48:33;;;;;;;8.65;4.78;;;10.50;99.90;;;;;;5054863;28;20056;-73
2022/12/20 10:51:12;;;;;;;7.00;4.57;;;10.30;99.90;;;;;;5072731;28;20497;-72
2022/12/20 10:54:00;;;;;;;6.95;3.90;;;10.50;99.90;;;;;;5072368;28;20127;-73
2022/12/20 10:56:30;;;;;;;6.18;3.97;;;10.30;99.90;;;;;;5072583;28;20094;-73
2022/12/20 10:58:59;;;;;;;11.80;4.45;;;10.30;99.90;;;;;;5074229;28;20414;-72
2022/12/20 11:01:36;;;;;;;6.97;4.38;;;10.60;99.90;;;;;;5072847;28;20044;-72
2022/12/20 11:04:02;;;;;;;8.35;4.38;;;10.60;99.90;;;;;;5072277;28;20494;-72
2022/12/20 11:06:37;;;;;;;6.20;4.28;;;10.60;99.90;;;;;;5072204;28;20091;-72
2022/12/20 11:09:23;;;;;;;9.32;3.95;;;10.40;99.90;;;;;;5055630;28;20457;-72
2022/12/20 11:12:02;;;;;;;8.35;4.53;;;10.40;99.90;;;;;;5072836;28;20386;-73
2022/12/20 11:14:29;;;;;;;16.40;10.80;;;10.40;99.90;;;;;;5073299;28;20048;-80
2022/12/20 11:16:56;;;;;;;11.27;8.13;;;10.50;99.90;;;;;;5072596;28;20041;-79
2022/12/20 11:19:50;;;;;;;8.68;6.20;;;10.70;99.90;;;;;;5072029;28;20445;-79
2022/12/20 11:22:31;;;;;;;;;;;10.70;99.90;;;;;;5056402;28;20036;-79
2022/12/20 11:25:06;;;;;;;5.35;4.10;;;10.60;99.90;;;;;;5074854;28;19999;-79
2022/12/20 11:27:56;;;;;;;7.25;4.28;;;10.90;99.90;;;;;;5072963;28;20036;-78
2022/12/20 11:30:54;;;;;;;6.68;4.78;;;10.90;99.90;;;;;;5070594;28;20080;-78
2022/12/20 11:33:45;;;;;;;6.78;4.05;;;10.90;99.90;;;;;;5052132;28;20147;-79
2022/12/20 11:36:39;;;;;;;7.50;3.67;;;10.90;99.90;;;;;;5074370;28;20044;-79
2022/12/20 11:39:30;;;;;;;5.78;3.75;;;10.90;99.90;;;;;;5074232;28;20089;-79
2022/12/20 11:42:16;;;;;;;5.45;3.35;;;10.90;99.90;;;;;;5073017;28;20044;-78
2022/12/20 11:44:56;;;;;;;8.27;3.88;;;10.90;99.90;;;;;;5072059;28;20097;-78
2022/12/20 11:47:43;;;;;;;4.40;3.53;;;10.90;99.90;;;;;;5072056;28;20052;-78
2022/12/20 11:50:17;;;;;;;5.55;3.97;;;10.90;99.90;;;;;;5071868;28;20032;-78
2022/12/20 11:53:03;;;;;;;5.03;3.83;;;10.80;99.90;;;;;;5072211;28;20040;-78
2022/12/20 11:55:40;;;;;;;4.95;3.38;;;10.90;99.90;;;;;;5071774;28;20047;-78
2022/12/20 11:58:17;;;;;;;9.27;3.97;;;10.70;99.90;;;;;;5071286;28;20044;-77
2022/12/20 12:01:05;;;;;;;7.65;3.70;;;10.70;99.90;;;;;;5074928;28;20032;-79
2022/12/20 12:03:40;;;;;;;6.55;3.70;;;10.70;99.90;;;;;;5073413;28;20052;-78
2022/12/20 12:06:22;;;;;;;7.20;3.38;;;10.70;99.90;;;;;;5073668;28;20131;-78
2022/12/20 12:09:14;;;;;;;5.43;3.47;;;10.90;99.90;;;;;;5073676;28;20052;-79
2022/12/20 12:11:49;;;;;;;8.90;3.70;;;10.80;99.90;;;;;;5065972;28;20406;-79
2022/12/20 12:14:26;;;;;;;6.40;3.35;;;10.80;99.90;;;;;;5073818;28;20074;-80
2022/12/20 12:16:56;;;;;;;6.47;3.67;;;10.80;99.90;;;;;;5083854;28;20072;-79
2022/12/20 12:19:24;;;;;;;5.03;3.65;;;10.90;99.90;;;;;;5085557;28;20120;-79
2022/12/20 12:21:57;;;;;;;4.88;3.60;;;10.90;99.90;;;;;;5078502;28;20044;-78
2022/12/20 12:24:30;;;;;;;5.32;4.32;;;10.60;99.90;;;;;;5076850;28;20036;-78
2022/12/20 12:26:58;;;;;;;5.85;3.75;;;10.70;99.90;;;;;;5075787;28;20028;-78
2022/12/20 12:29:24;;;;;;;6.20;3.28;;;10.80;99.90;;;;;;5072603;28;20036;-77
2022/12/20 12:31:59;;;;;;;6.22;3.83;;;10.90;99.90;;;;;;5075542;28;20044;-79
2022/12/20 12:34:48;;;;;;;5.97;4.15;;;10.90;99.90;;;;;;5080265;28;20619;-79
2022/12/20 12:37:32;;;;;;;8.77;4.63;;;10.70;99.90;;;;;;5081086;28;20490;-81
2022/12/20 12:40:26;;;;;;;7.15;4.72;;;10.60;99.90;;;;;;5086642;28;20041;-81
2022/12/20 12:43:35;;;;;;;7.82;4.65;;;10.70;99.90;;;;;;5083308;28;20052;-79
2022/12/20 12:46:03;;;;;;;6.57;3.88;;;10.80;99.90;;;;;;5062189;28;20071;-79
2022/12/20 12:48:38;;;;;;;8.38;5.65;;;10.60;99.90;;;;;;5072729;28;20033;-81
2022/12/20 12:51:04;;;;;;;5.82;3.70;;;10.60;99.90;;;;;;5081364;28;20043;-80
2022/12/20 12:53:54;;;;;;;6.50;4.60;;;10.70;99.90;;;;;;5084475;28;20041;-80
2022/12/20 12:56:25;;;;;;;5.38;4.18;;;10.60;99.90;;;;;;5085100;28;20036;-79
2022/12/20 12:59:08;;;;;;;6.00;5.00;;;10.70;99.90;;;;;;5081062;28;20271;-77
2022/12/20 13:02:14;;;;;;;5.60;4.63;;;10.80;99.90;;;;;;5072300;28;20067;-78
2022/12/20 13:04:59;;;;;;;5.75;4.60;;;10.50;99.90;;;;;;5087660;28;20048;-79
2022/12/20 13:07:34;;;;;;;4.55;4.15;;;10.60;99.90;;;;;;5087476;28;20088;-79
2022/12/20 13:10:08;;;;;;;4.88;4.38;;;10.80;99.90;;;;;;5084637;28;20054;-79
2022/12/20 13:12:37;;;;;;;7.05;4.75;;;10.60;99.90;;;;;;5088341;28;20044;-81
2022/12/20 13:15:22;;;;;;;6.97;4.70;;;10.60;99.90;;;;;;5088333;28;20070;-81
2022/12/20 13:18:07;;;;;;;4.47;4.07;;;10.70;99.90;;;;;;5069681;28;20041;-80
2022/12/20 13:20:34;;;;;;;6.55;4.72;;;10.60;99.90;;;;;;5083949;28;20076;-79
2022/12/20 13:23:10;;;;;;;8.07;4.78;;;10.60;99.90;;;;;;5078031;28;20107;-78
2022/12/20 13:25:53;;;;;;;6.57;4.32;;;10.80;99.90;;;;;;5078625;28;20063;-79